Time;durP1;ratioP1;P1;durP2;ratioP2;P2;SDS_P1;SDS_P2;PMS_P1;PMS_P2;Temp;Humidity;BMP_temperature;BMP_pressure;BME280_temperature;BME280_humidity;BME280_pressure;Samples;Min_cycle;Max_cycle;Signal;HPM_P1;HPM_P2
2022/05/05 00:00:54;;;;;;;6.97;4.18;;;10.40;99.90;;;;;;5070091;28;20026;-76
2022/05/05 00:03:20;;;;;;;7.97;4.65;;;10.40;99.90;;;;;;5063178;28;20028;-76
2022/05/05 00:05:45;;;;;;;6.45;3.58;;;10.40;99.90;;;;;;5070310;28;20020;-76
2022/05/05 00:08:11;;;;;;;8.90;4.22;;;10.40;99.90;;;;;;5071189;28;20040;-76
2022/05/05 00:16:10;;;;;;;6.57;3.83;;;10.40;99.90;;;;;;5064221;28;20062;-76
2022/05/05 00:18:36;;;;;;;4.97;3.10;;;10.40;99.90;;;;;;5069544;28;20536;-77
2022/05/05 00:21:02;;;;;;;6.95;4.30;;;10.30;99.90;;;;;;5070415;28;20025;-77
2022/05/05 00:23:28;;;;;;;7.65;4.63;;;10.30;99.90;;;;;;5070447;28;20067;-76
2022/05/05 00:25:54;;;;;;;8.18;4.80;;;10.30;99.90;;;;;;5069871;28;20060;-76
2022/05/05 00:28:20;;;;;;;5.47;3.85;;;10.30;99.90;;;;;;5100817;22;20094;-76
2022/05/05 00:30:46;;;;;;;7.47;4.55;;;10.30;99.90;;;;;;5083605;28;20024;-75
2022/05/05 00:33:12;;;;;;;5.47;3.85;;;10.30;99.90;;;;;;5081497;28;20028;-75
2022/05/05 00:35:37;;;;;;;5.60;3.70;;;10.20;99.90;;;;;;5087691;28;20385;-76
2022/05/05 00:38:03;;;;;;;4.95;3.42;;;10.10;99.90;;;;;;5074171;28;20021;-77
2022/05/05 00:40:30;;;;;;;6.57;3.58;;;10.00;99.90;;;;;;5061821;28;20063;-76
2022/05/05 00:42:58;;;;;;;6.38;3.55;;;10.00;99.90;;;;;;5061292;28;20031;-76
2022/05/05 00:45:24;;;;;;;5.88;3.13;;;9.90;99.90;;;;;;5057722;28;20033;-76
2022/05/05 00:47:49;;;;;;;4.10;3.33;;;9.90;99.90;;;;;;5062737;28;20043;-76
2022/05/05 00:50:18;;;;;;;6.03;3.75;;;9.80;99.90;;;;;;5061162;28;20070;-77
2022/05/05 00:52:44;;;;;;;6.72;3.83;;;9.80;99.90;;;;;;5061456;28;20020;-76
2022/05/05 00:55:10;;;;;;;6.15;3.38;;;9.70;99.90;;;;;;5057049;28;20040;-76
2022/05/05 00:57:37;;;;;;;6.90;4.35;;;9.70;99.90;;;;;;5060213;28;20362;-75
2022/05/05 01:00:03;;;;;;;7.57;3.40;;;9.60;99.90;;;;;;5061398;28;20016;-76
2022/05/05 01:02:32;;;;;;;5.00;3.15;;;9.60;99.90;;;;;;5057929;28;20032;-76
2022/05/05 01:04:58;;;;;;;8.10;4.05;;;9.50;99.90;;;;;;5061387;28;20020;-76
2022/05/05 01:07:25;;;;;;;5.38;3.63;;;9.40;99.90;;;;;;5060211;28;20028;-76
2022/05/05 01:09:50;;;;;;;4.80;3.65;;;9.30;99.90;;;;;;5055426;28;20117;-76
2022/05/05 01:12:16;;;;;;;7.68;4.60;;;9.30;99.90;;;;;;5061729;28;20103;-76
2022/05/05 01:14:43;;;;;;;5.78;3.58;;;9.30;99.90;;;;;;5061195;28;20465;-76
2022/05/05 01:17:09;;;;;;;4.13;3.28;;;9.30;99.90;;;;;;5059464;28;20020;-76
2022/05/05 01:19:35;;;;;;;4.70;3.33;;;9.20;99.90;;;;;;5065260;28;20012;-76
2022/05/05 01:22:03;;;;;;;6.72;3.88;;;9.00;99.90;;;;;;5065381;28;20025;-76
2022/05/05 01:30:08;;;;;;;7.75;3.42;;;8.90;99.90;;;;;;5070942;28;20048;-76
2022/05/05 01:32:34;;;;;;;5.38;3.00;;;8.80;99.90;;;;;;5073886;28;20469;-76
2022/05/05 01:35:00;;;;;;;6.75;3.70;;;8.80;99.90;;;;;;5074671;28;20381;-76
2022/05/05 01:37:27;;;;;;;5.65;3.72;;;8.70;99.90;;;;;;5069646;28;20027;-75
2022/05/05 01:39:53;;;;;;;8.82;3.45;;;8.60;99.90;;;;;;5054360;28;20021;-76
2022/05/05 01:42:19;;;;;;;5.72;3.70;;;8.60;99.90;;;;;;5053450;28;20377;-75
2022/05/05 01:44:45;;;;;;;5.20;3.60;;;8.60;99.90;;;;;;5054648;28;20668;-76
2022/05/05 01:47:11;;;;;;;7.15;4.15;;;8.50;99.90;;;;;;5053352;28;20029;-76
2022/05/05 01:49:36;;;;;;;5.57;3.60;;;8.50;99.90;;;;;;5052704;28;20075;-76
2022/05/05 01:52:07;;;;;;;7.60;3.97;;;8.40;99.90;;;;;;5053257;28;20020;-76
2022/05/05 01:54:32;;;;;;;5.25;3.90;;;8.30;99.90;;;;;;5053887;28;20032;-75
2022/05/05 01:56:58;;;;;;;6.25;3.63;;;8.30;99.90;;;;;;5053259;28;20025;-75
2022/05/05 01:59:24;;;;;;;6.72;3.97;;;8.30;99.90;;;;;;5054133;28;20466;-75
2022/05/05 02:01:49;;;;;;;6.45;3.65;;;8.30;99.90;;;;;;5053443;28;20020;-75
2022/05/05 02:04:15;;;;;;;7.18;4.63;;;8.20;99.90;;;;;;5052750;28;20021;-75
2022/05/05 02:06:41;;;;;;;6.10;4.40;;;8.10;99.90;;;;;;5053553;28;20393;-75
2022/05/05 02:09:06;;;;;;;8.80;4.45;;;8.00;99.90;;;;;;5053810;28;20519;-75
2022/05/05 02:11:32;;;;;;;6.65;3.58;;;8.00;99.90;;;;;;5052053;28;20019;-75
2022/05/05 02:13:58;;;;;;;6.70;3.90;;;7.80;99.90;;;;;;5052647;28;20466;-75
2022/05/05 02:16:23;;;;;;;6.35;3.85;;;7.70;99.90;;;;;;5052216;28;20025;-75
2022/05/05 02:18:49;;;;;;;4.97;3.42;;;7.70;99.90;;;;;;5053380;28;20046;-75
2022/05/05 02:21:16;;;;;;;7.40;3.55;;;7.60;99.90;;;;;;5053176;28;20458;-75
2022/05/05 02:23:42;;;;;;;6.72;3.65;;;7.40;99.90;;;;;;5053448;28;20155;-76
2022/05/05 02:26:08;;;;;;;7.25;4.30;;;7.30;99.90;;;;;;5051658;28;20111;-75
2022/05/05 02:28:34;;;;;;;4.80;3.28;;;7.30;99.90;;;;;;5087606;22;20441;-75
2022/05/05 02:31:00;;;;;;;6.47;3.90;;;7.20;99.90;;;;;;5078100;28;20024;-76
2022/05/05 02:33:25;;;;;;;5.72;3.10;;;7.20;99.90;;;;;;5080108;28;20465;-76
2022/05/05 02:38:42;;;;;;;7.22;3.90;;;7.20;99.90;;;;;;5079641;28;20039;-76
2022/05/05 02:38:42;;;;;;;4.82;3.65;;;7.10;99.90;;;;;;5080134;28;20025;-76
2022/05/05 02:41:08;;;;;;;6.78;3.90;;;7.00;99.90;;;;;;5079232;28;21455;-76
2022/05/05 02:43:34;;;;;;;6.90;3.95;;;6.90;99.90;;;;;;5079497;28;20379;-75
2022/05/05 02:45:59;;;;;;;5.35;3.63;;;6.70;99.90;;;;;;5082877;28;20020;-75
2022/05/05 02:48:25;;;;;;;6.70;3.75;;;6.70;99.90;;;;;;5081845;28;20113;-76
2022/05/05 02:50:51;;;;;;;5.75;3.55;;;6.70;99.90;;;;;;5079188;28;20424;-76
2022/05/05 02:56:01;;;;;;;5.15;3.78;;;6.70;99.90;;;;;;5076566;28;20717;-76
2022/05/05 02:58:28;;;;;;;4.93;3.13;;;6.60;99.90;;;;;;5073991;28;20020;-75
2022/05/05 03:00:54;;;;;;;4.93;3.42;;;6.50;99.90;;;;;;5077835;28;20098;-76
2022/05/05 03:03:20;;;;;;;7.43;3.53;;;6.40;99.90;;;;;;5079999;28;20040;-76
2022/05/05 03:05:46;;;;;;;5.75;3.60;;;6.40;99.90;;;;;;5077474;28;20077;-75
2022/05/05 03:08:12;;;;;;;8.23;3.85;;;6.30;99.90;;;;;;5079210;28;20040;-76
2022/05/05 03:10:38;;;;;;;8.32;4.30;;;6.30;99.90;;;;;;5077515;28;20350;-76
2022/05/05 03:13:04;;;;;;;6.57;3.90;;;6.20;99.90;;;;;;5076586;28;20438;-76
2022/05/05 03:15:31;;;;;;;7.22;3.95;;;6.20;99.90;;;;;;5075342;28;20047;-76
2022/05/05 03:17:57;;;;;;;10.70;3.95;;;6.30;99.90;;;;;;5078066;28;20021;-76
2022/05/05 03:20:23;;;;;;;5.50;3.42;;;6.40;99.90;;;;;;5078571;28;20031;-76
2022/05/05 03:22:48;;;;;;;7.65;4.03;;;6.40;99.90;;;;;;5079317;28;20099;-76
2022/05/05 03:25:14;;;;;;;7.10;3.70;;;6.40;99.90;;;;;;5079504;28;20027;-76
2022/05/05 03:27:40;;;;;;;10.40;3.97;;;6.40;99.90;;;;;;5098749;22;20064;-78
2022/05/05 03:30:06;;;;;;;6.82;4.15;;;6.40;99.90;;;;;;5089295;28;20036;-78
2022/05/05 03:32:32;;;;;;;5.75;3.22;;;6.40;99.90;;;;;;5073620;28;20030;-78
2022/05/05 03:34:58;;;;;;;4.82;3.63;;;6.30;99.90;;;;;;5091470;28;20024;-78
2022/05/05 03:37:33;;;;;;;5.32;3.63;;;6.20;99.90;;;;;;5087090;28;20032;-79
2022/05/05 03:39:58;;;;;;;4.72;3.00;;;6.20;99.90;;;;;;5078503;28;20017;-79
2022/05/05 03:42:24;;;;;;;7.78;3.65;;;6.30;99.90;;;;;;5083866;28;20511;-79
2022/05/05 03:44:50;;;;;;;8.00;3.70;;;6.30;99.90;;;;;;5078989;28;20057;-79
2022/05/05 03:47:15;;;;;;;6.53;3.95;;;6.40;99.90;;;;;;5078421;28;20385;-79
2022/05/05 03:49:41;;;;;;;6.70;3.55;;;6.40;99.90;;;;;;5081487;28;20536;-79
2022/05/05 03:52:07;;;;;;;5.78;3.45;;;6.50;99.90;;;;;;5081166;28;20032;-79
2022/05/05 03:54:33;;;;;;;8.60;4.03;;;6.60;99.90;;;;;;5082699;28;20031;-79
2022/05/05 03:56:59;;;;;;;7.68;4.00;;;6.70;99.90;;;;;;5078351;28;20032;-79
2022/05/05 03:59:25;;;;;;;5.78;3.88;;;6.60;99.90;;;;;;5063729;28;20024;-79
2022/05/05 04:01:51;;;;;;;6.88;3.92;;;6.60;99.90;;;;;;5081890;28;20058;-79
2022/05/05 04:04:17;;;;;;;5.35;3.03;;;6.70;99.90;;;;;;5077538;28;20025;-79
2022/05/05 04:06:43;;;;;;;5.88;3.30;;;6.70;99.90;;;;;;5080487;28;20021;-79
2022/05/05 04:09:10;;;;;;;6.68;3.58;;;6.70;99.90;;;;;;5063453;28;20043;-79
2022/05/05 04:11:36;;;;;;;7.68;3.70;;;6.70;99.90;;;;;;5077789;28;20043;-79
2022/05/05 04:14:03;;;;;;;5.70;3.60;;;6.70;99.90;;;;;;5082158;28;20016;-79
2022/05/05 04:16:31;;;;;;;7.53;3.97;;;6.60;99.90;;;;;;5080721;28;20020;-79
2022/05/05 04:18:58;;;;;;;6.63;4.03;;;6.60;99.90;;;;;;5078181;28;20099;-79
2022/05/05 04:21:24;;;;;;;7.47;4.13;;;6.50;99.90;;;;;;5077409;28;20179;-80
2022/05/05 04:23:50;;;;;;;6.50;3.75;;;6.50;99.90;;;;;;5080612;28;20107;-80
2022/05/05 04:26:17;;;;;;;5.38;3.50;;;6.40;99.90;;;;;;5082186;28;20054;-78
2022/05/05 04:28:46;;;;;;;5.30;3.17;;;6.50;99.90;;;;;;5090120;22;20440;-75
2022/05/05 04:31:14;;;;;;;5.25;3.17;;;6.60;99.90;;;;;;5076661;28;20084;-76
2022/05/05 04:33:40;;;;;;;5.65;3.15;;;6.60;99.90;;;;;;5078023;28;20020;-75
2022/05/05 04:36:07;;;;;;;6.30;4.20;;;6.60;99.90;;;;;;5076422;28;20468;-76
2022/05/05 04:38:34;;;;;;;7.82;3.45;;;6.70;99.90;;;;;;5075186;28;20113;-76
2022/05/05 04:41:00;;;;;;;6.78;3.60;;;6.60;99.90;;;;;;5074067;28;20028;-76
2022/05/05 04:43:26;;;;;;;6.78;3.47;;;6.50;99.90;;;;;;5076664;28;20028;-75
2022/05/05 04:45:52;;;;;;;8.30;4.78;;;6.50;99.90;;;;;;5076796;28;20048;-77
2022/05/05 04:48:18;;;;;;;6.40;4.28;;;6.60;99.90;;;;;;5077133;28;20033;-76
2022/05/05 04:50:44;;;;;;;9.02;4.50;;;6.50;99.90;;;;;;5074284;28;20128;-75
2022/05/05 04:53:10;;;;;;;7.72;4.20;;;6.50;99.90;;;;;;5084502;28;20029;-75
2022/05/05 04:55:35;;;;;;;10.32;4.63;;;6.50;99.90;;;;;;5083055;28;20130;-75
2022/05/05 04:58:01;;;;;;;6.65;3.53;;;6.50;99.90;;;;;;5083877;28;20099;-75
2022/05/05 05:00:29;;;;;;;8.27;4.05;;;6.50;99.90;;;;;;5088554;28;20020;-76
2022/05/05 05:02:56;;;;;;;7.03;4.03;;;6.60;99.90;;;;;;5081717;28;20016;-76
2022/05/05 05:05:21;;;;;;;7.55;4.43;;;6.60;99.90;;;;;;5080880;28;20029;-76
2022/05/05 05:07:47;;;;;;;10.05;4.13;;;6.60;99.90;;;;;;5083150;28;20040;-75
2022/05/05 05:10:13;;;;;;;10.00;4.38;;;6.70;99.90;;;;;;5084050;28;20392;-75
2022/05/05 05:12:39;;;;;;;9.70;4.22;;;6.70;99.90;;;;;;5082826;28;20028;-75
2022/05/05 05:15:06;;;;;;;6.93;4.43;;;6.80;99.90;;;;;;5084140;28;20568;-75
2022/05/05 05:17:32;;;;;;;7.60;4.85;;;6.80;99.90;;;;;;5082544;28;20396;-75
2022/05/05 05:19:58;;;;;;;5.82;3.95;;;6.90;99.90;;;;;;5083325;28;20020;-75
2022/05/05 05:22:23;;;;;;;9.25;4.43;;;7.00;99.90;;;;;;5084049;28;20025;-75
2022/05/05 05:24:49;;;;;;;9.77;4.38;;;7.10;99.90;;;;;;5084198;28;20027;-75
2022/05/05 05:29:47;;;;;;;9.43;3.97;;;7.30;99.90;;;;;;5079839;28;20039;-78
2022/05/05 05:32:13;;;;;;;9.32;4.47;;;7.50;99.90;;;;;;5081294;28;20020;-78
2022/05/05 05:34:38;;;;;;;8.90;4.38;;;7.50;99.90;;;;;;5081363;28;20024;-78
2022/05/05 05:37:04;;;;;;;6.57;4.35;;;7.60;99.90;;;;;;5081392;28;20017;-78
2022/05/05 05:39:31;;;;;;;9.07;4.10;;;7.70;99.90;;;;;;5080390;28;20023;-78
2022/05/05 05:41:57;;;;;;;8.35;4.57;;;7.80;99.90;;;;;;5080593;28;20016;-77
2022/05/05 05:44:22;;;;;;;9.52;4.75;;;7.90;99.90;;;;;;5079973;28;20504;-78
2022/05/05 05:46:48;;;;;;;8.57;4.60;;;8.10;99.90;;;;;;5083082;28;20454;-78
2022/05/05 05:49:14;;;;;;;7.15;4.25;;;8.30;99.90;;;;;;5083372;28;20040;-78
2022/05/05 05:51:40;;;;;;;9.63;4.35;;;8.40;99.90;;;;;;5083269;28;20055;-78
2022/05/05 05:54:05;;;;;;;7.05;4.03;;;8.60;99.90;;;;;;5082806;28;20032;-78
2022/05/05 05:56:32;;;;;;;7.57;3.90;;;8.70;99.90;;;;;;5083330;28;20437;-78
2022/05/05 05:58:58;;;;;;;6.95;4.25;;;8.90;99.90;;;;;;5076152;28;20034;-77
2022/05/05 06:03:53;;;;;;;6.93;4.00;;;9.00;99.90;;;;;;5082280;28;20082;-78
2022/05/05 06:04:10;;;;;;;7.47;4.38;;;9.20;99.90;;;;;;5077627;28;20111;-78
2022/05/05 06:06:35;;;;;;;6.88;4.10;;;9.50;99.90;;;;;;5077154;28;20126;-79
2022/05/05 06:09:01;;;;;;;7.78;4.25;;;9.80;99.90;;;;;;5077781;28;20036;-79
2022/05/05 06:11:27;;;;;;;6.60;3.50;;;10.20;99.90;;;;;;5077796;28;20025;-79
2022/05/05 06:13:53;;;;;;;7.55;3.42;;;10.40;99.90;;;;;;5080403;28;20453;-78
2022/05/05 06:16:18;;;;;;;5.90;3.90;;;10.70;99.90;;;;;;5079763;28;20024;-78
2022/05/05 06:18:44;;;;;;;6.93;3.60;;;10.90;99.90;;;;;;5079722;28;20366;-78
2022/05/05 06:21:10;;;;;;;5.43;3.28;;;11.00;99.90;;;;;;5078653;28;20473;-81
2022/05/05 06:23:37;;;;;;;5.20;3.60;;;11.10;99.90;;;;;;5079189;28;20023;-79
2022/05/05 06:26:05;;;;;;;6.72;3.63;;;11.10;99.90;;;;;;5076991;28;20102;-80
2022/05/05 06:28:33;;;;;;;5.75;3.17;;;11.10;99.90;;;;;;5091456;22;20393;-76
2022/05/05 06:30:59;;;;;;;6.63;3.97;;;11.00;99.90;;;;;;5079911;28;20017;-76
2022/05/05 06:33:25;;;;;;;5.80;3.30;;;11.10;99.90;;;;;;5079190;28;20028;-75
2022/05/05 06:35:51;;;;;;;5.07;3.63;;;11.20;99.90;;;;;;5084031;28;20031;-77
2022/05/05 06:38:16;;;;;;;4.53;2.55;;;11.20;99.90;;;;;;5076238;28;20025;-77
2022/05/05 06:40:44;;;;;;;4.93;2.88;;;11.30;99.90;;;;;;5077417;28;20103;-76
2022/05/05 06:43:10;;;;;;;7.93;3.22;;;11.30;99.90;;;;;;5080372;28;20023;-77
2022/05/05 06:45:35;;;;;;;6.50;3.20;;;11.30;99.90;;;;;;5079113;28;20024;-74
2022/05/05 06:48:01;;;;;;;4.50;3.17;;;11.40;99.90;;;;;;5079351;28;20445;-75
2022/05/05 06:50:28;;;;;;;3.67;2.67;;;11.30;99.90;;;;;;5076372;28;20031;-74
2022/05/05 06:52:54;;;;;;;3.45;2.70;;;11.30;99.90;;;;;;5076656;28;20016;-75
2022/05/05 06:55:20;;;;;;;6.82;3.30;;;11.30;99.90;;;;;;5075752;28;20031;-75
2022/05/05 06:57:47;;;;;;;4.50;2.80;;;11.30;99.90;;;;;;5077136;28;20045;-76
2022/05/05 07:00:13;;;;;;;4.57;2.90;;;11.30;99.90;;;;;;5076337;28;20079;-74
2022/05/05 07:02:39;;;;;;;4.43;3.00;;;11.30;99.90;;;;;;5078366;28;20028;-75
2022/05/05 07:05:23;;;;;;;4.03;2.78;;;11.40;99.90;;;;;;5077516;28;20046;-75
2022/05/05 07:07:49;;;;;;;6.53;3.92;;;11.50;99.90;;;;;;5077292;28;20054;-75
2022/05/05 07:13:17;;;;;;;5.65;3.25;;;11.50;99.90;;;;;;5082209;28;20085;-78
2022/05/05 07:15:43;;;;;;;5.03;3.70;;;11.50;99.90;;;;;;5076567;28;20031;-79
2022/05/05 07:18:09;;;;;;;6.15;3.10;;;11.60;99.90;;;;;;5075361;28;20072;-80
2022/05/05 07:20:35;;;;;;;6.57;3.55;;;11.60;99.90;;;;;;5081641;28;20034;-78
2022/05/05 07:23:01;;;;;;;6.18;4.00;;;11.70;99.90;;;;;;5079217;28;20028;-79
2022/05/05 07:25:27;;;;;;;6.57;4.35;;;11.70;99.90;;;;;;5078121;28;20024;-79
2022/05/05 07:27:53;;;;;;;7.65;3.67;;;11.90;99.90;;;;;;5102403;22;20039;-78
2022/05/05 07:30:19;;;;;;;7.03;4.10;;;11.90;99.90;;;;;;5082253;28;20123;-78
2022/05/05 07:32:45;;;;;;;6.15;3.60;;;11.90;99.90;;;;;;5090595;28;20020;-77
2022/05/05 07:35:11;;;;;;;6.15;3.90;;;12.00;99.90;;;;;;5090836;28;20514;-77
2022/05/05 07:37:38;;;;;;;7.82;4.13;;;12.30;99.90;;;;;;5088808;28;20102;-78
2022/05/05 07:40:05;;;;;;;4.80;2.53;;;12.40;99.90;;;;;;5080194;28;20024;-78
2022/05/05 07:42:31;;;;;;;4.50;2.65;;;12.60;99.90;;;;;;5078444;28;20052;-77
2022/05/05 07:44:57;;;;;;;3.30;2.55;;;12.90;99.90;;;;;;5083878;28;20055;-78
2022/05/05 07:47:22;;;;;;;6.50;2.35;;;13.40;99.90;;;;;;5080435;28;20545;-78
2022/05/05 07:49:48;;;;;;;3.38;1.92;;;13.80;99.90;;;;;;5077464;28;20028;-78
2022/05/05 07:52:14;;;;;;;2.88;2.17;;;14.30;99.90;;;;;;5083681;28;20042;-78
2022/05/05 07:54:43;;;;;;;3.75;1.90;;;14.60;99.90;;;;;;5080679;28;20523;-78
2022/05/05 07:57:11;;;;;;;3.60;2.72;;;14.80;99.90;;;;;;5078747;28;20025;-78
2022/05/05 07:59:39;;;;;;;2.33;2.00;;;14.80;99.90;;;;;;5079047;28;20029;-78
2022/05/05 08:02:09;;;;;;;2.38;1.73;;;14.80;99.90;;;;;;5081932;28;20487;-79
2022/05/05 08:04:35;;;;;;;3.75;2.15;;;14.80;99.90;;;;;;5081105;28;20059;-78
2022/05/05 08:07:00;;;;;;;3.78;2.22;;;14.80;99.90;;;;;;5078036;28;20122;-79
2022/05/05 08:09:26;;;;;;;3.75;2.10;;;15.00;99.90;;;;;;5083080;28;20061;-78
2022/05/05 08:11:52;;;;;;;3.35;2.08;;;15.10;99.90;;;;;;5080250;28;20028;-78
2022/05/05 08:14:18;;;;;;;2.30;2.08;;;15.20;99.90;;;;;;5077998;28;20073;-78
2022/05/05 08:16:44;;;;;;;3.45;2.05;;;14.90;99.90;;;;;;5077948;28;20053;-79
2022/05/05 08:19:09;;;;;;;5.22;2.30;;;14.70;99.90;;;;;;5080011;28;20028;-78
2022/05/05 08:21:35;;;;;;;3.80;2.40;;;14.70;99.90;;;;;;5082572;28;20564;-79
2022/05/05 08:29:29;;;;;;;3.80;2.28;;;14.70;99.90;;;;;;5097158;23;20400;-80
2022/05/05 08:31:55;;;;;;;1.88;1.55;;;14.70;99.90;;;;;;5087732;28;20500;-80
2022/05/05 08:34:21;;;;;;;3.28;1.80;;;14.60;99.90;;;;;;5089947;28;20524;-80
2022/05/05 08:36:47;;;;;;;4.00;1.80;;;14.50;99.90;;;;;;5089680;28;20020;-80
2022/05/05 08:39:13;;;;;;;2.35;1.63;;;14.50;99.90;;;;;;5073207;28;20036;-81
2022/05/05 08:41:40;;;;;;;2.40;1.63;;;14.40;99.90;;;;;;5068568;28;20021;-80
2022/05/05 08:44:07;;;;;;;1.88;1.40;;;14.50;99.90;;;;;;5069359;28;20117;-80
2022/05/05 08:46:34;;;;;;;1.70;1.25;;;14.80;99.90;;;;;;5068917;28;20023;-80
2022/05/05 08:49:04;;;;;;;1.83;1.40;;;15.20;99.90;;;;;;5068789;28;20165;-80
2022/05/05 08:51:45;;;;;;;1.92;1.50;;;15.80;99.90;;;;;;5069364;28;20087;-80
2022/05/05 08:54:18;;;;;;;2.65;1.60;;;15.90;98.20;;;;;;5046451;28;20025;-80
2022/05/05 08:56:45;;;;;;;1.77;1.60;;;16.00;99.00;;;;;;5062484;28;20480;-81
2022/05/05 08:59:13;;;;;;;1.95;1.40;;;17.00;98.40;;;;;;5069047;28;20496;-80
2022/05/05 09:01:40;;;;;;;2.25;1.15;;;18.40;92.30;;;;;;5068664;28;20017;-81
2022/05/05 09:04:07;;;;;;;1.25;1.00;;;19.60;90.80;;;;;;5069032;28;20107;-81
2022/05/05 09:06:46;;;;;;;2.45;1.30;;;20.30;77.00;;;;;;5068325;28;20028;-81
2022/05/05 09:09:33;;;;;;;2.13;0.82;;;20.20;79.80;;;;;;5069075;28;20077;-80
2022/05/05 09:12:14;;;;;;;1.63;1.10;;;19.70;81.00;;;;;;5068672;28;20020;-81
2022/05/05 09:14:47;;;;;;;1.40;1.23;;;19.10;80.50;;;;;;5050671;28;20027;-81
2022/05/05 09:17:20;;;;;;;2.17;1.38;;;18.90;79.70;;;;;;5068740;28;20049;-80
2022/05/05 09:19:51;;;;;;;1.27;1.00;;;19.10;84.50;;;;;;5051193;28;20373;-81
2022/05/05 09:22:18;;;;;;;2.03;0.93;;;19.40;81.20;;;;;;5069665;28;20082;-81
2022/05/05 09:24:51;;;;;;;1.00;0.90;;;19.90;75.90;;;;;;5069166;28;20340;-81
2022/05/05 09:27:28;;;;;;;1.05;0.93;;;19.60;76.40;;;;;;5050954;28;20033;-81
2022/05/05 09:30:02;;;;;;;0.88;0.80;;;19.10;76.80;;;;;;5068440;28;20050;-80
2022/05/05 09:32:36;;;;;;;3.67;1.38;;;18.70;80.00;;;;;;5068728;28;20027;-80
2022/05/05 09:35:15;;;;;;;1.65;1.20;;;18.80;81.90;;;;;;5069492;28;20024;-80
2022/05/05 09:37:44;;;;;;;2.03;1.30;;;18.70;78.30;;;;;;5063381;28;20028;-80
2022/05/05 09:40:13;;;;;;;1.73;1.50;;;18.20;82.70;;;;;;5072584;28;20116;-80
2022/05/05 09:42:43;;;;;;;4.72;1.80;;;17.70;80.40;;;;;;5066054;28;20028;-80
2022/05/05 09:45:26;;;;;;;2.85;1.50;;;17.70;84.40;;;;;;5072131;28;20020;-80
2022/05/05 09:47:57;;;;;;;1.73;1.35;;;18.80;81.80;;;;;;5072898;28;20034;-80
2022/05/05 09:50:24;;;;;;;;;;;19.90;77.00;;;;;;5066634;28;20028;-80
2022/05/05 09:58:24;;;;;;;1.13;0.90;;;22.40;61.90;;;;;;5090068;22;20069;-78
2022/05/05 10:06:36;;;;;;;2.20;1.02;;;23.70;59.30;;;;;;5080412;28;20026;-78
2022/05/05 10:09:07;;;;;;;1.50;0.90;;;22.80;59.60;;;;;;5080669;28;20062;-77
2022/05/05 10:11:34;;;;;;;1.63;1.10;;;22.90;60.70;;;;;;5080229;28;20027;-78
2022/05/05 10:14:01;;;;;;;1.92;1.00;;;22.50;59.00;;;;;;5079281;28;20472;-78
2022/05/05 10:16:30;;;;;;;0.90;0.80;;;22.80;55.20;;;;;;5076285;28;20020;-78
2022/05/05 10:18:56;;;;;;;0.90;0.90;;;23.80;59.10;;;;;;5077296;28;20066;-79
2022/05/05 10:21:52;;;;;;;1.15;0.90;;;24.30;54.10;;;;;;5078243;28;20720;-78
2022/05/05 10:24:34;;;;;;;0.95;0.85;;;23.90;56.00;;;;;;5080231;28;20020;-78
2022/05/05 10:27:01;;;;;;;1.15;0.93;;;23.30;57.20;;;;;;5078419;28;20016;-78
2022/05/05 10:29:41;;;;;;;0.73;0.73;;;22.60;55.70;;;;;;5078353;28;20051;-78
2022/05/05 10:32:07;;;;;;;3.03;1.15;;;23.60;58.70;;;;;;5077354;28;20059;-78
2022/05/05 10:34:33;;;;;;;2.00;0.93;;;23.60;55.10;;;;;;5077361;28;20024;-78
2022/05/05 10:37:01;;;;;;;1.25;0.90;;;23.20;56.90;;;;;;5077434;28;20016;-79
2022/05/05 10:39:46;;;;;;;1.70;0.95;;;22.90;53.50;;;;;;5079674;28;20151;-78
2022/05/05 10:42:14;;;;;;;1.80;1.00;;;22.20;58.30;;;;;;5078019;28;20020;-78
2022/05/05 10:45:06;;;;;;;1.15;1.05;;;22.20;57.90;;;;;;5075962;28;20042;-78
2022/05/05 10:48:04;;;;;;;1.65;0.93;;;22.70;58.10;;;;;;5077422;28;20036;-79
2022/05/05 10:50:31;;;;;;;2.17;1.10;;;23.70;55.70;;;;;;5070766;28;20032;-78
2022/05/05 10:52:58;;;;;;;1.05;0.82;;;23.20;54.80;;;;;;5079676;28;20009;-79
2022/05/05 10:55:33;;;;;;;1.30;1.20;;;24.30;55.70;;;;;;5079796;28;20381;-79
2022/05/05 10:57:58;;;;;;;1.00;0.90;;;25.80;52.80;;;;;;5094734;22;20801;-79
2022/05/05 11:00:38;;;;;;;1.30;0.77;;;27.10;47.10;;;;;;5077374;28;20528;-80
2022/05/05 11:03:09;;;;;;;1.63;0.80;;;27.70;47.40;;;;;;5072299;28;20013;-80
2022/05/05 11:05:36;;;;;;;1.17;0.70;;;29.00;44.80;;;;;;5077690;28;20058;-80
2022/05/05 11:08:08;;;;;;;2.25;0.80;;;30.00;44.00;;;;;;5079294;28;20552;-80
2022/05/05 11:10:45;;;;;;;1.25;0.90;;;30.60;39.20;;;;;;5078476;28;20103;-80
2022/05/05 11:13:36;;;;;;;0.93;0.77;;;30.50;37.70;;;;;;5078909;28;20027;-79
2022/05/05 11:22:11;;;;;;;1.02;0.70;;;28.90;38.50;;;;;;5076995;28;20061;-80
2022/05/05 11:24:39;;;;;;;3.00;0.90;;;28.70;40.70;;;;;;5076630;28;20012;-80
2022/05/05 11:27:11;;;;;;;1.27;1.00;;;29.50;40.90;;;;;;5076223;28;20021;-80
2022/05/05 11:29:36;;;;;;;1.08;0.90;;;28.70;41.50;;;;;;5083582;28;20035;-80
2022/05/05 11:32:06;;;;;;;1.52;1.30;;;28.50;43.50;;;;;;5077950;28;20016;-80
2022/05/05 11:34:36;;;;;;;1.83;1.15;;;29.80;40.00;;;;;;5079510;28;20038;-80
2022/05/05 11:37:03;;;;;;;1.42;1.10;;;30.30;37.90;;;;;;5078903;28;20019;-80
2022/05/05 11:39:32;;;;;;;0.73;0.73;;;29.70;39.40;;;;;;5077937;28;20118;-80
2022/05/05 11:41:57;;;;;;;3.17;0.95;;;29.10;40.20;;;;;;5078795;28;20048;-80
2022/05/05 11:44:25;;;;;;;1.58;0.80;;;29.80;40.40;;;;;;5078881;28;20105;-80
2022/05/05 11:46:53;;;;;;;1.08;0.95;;;31.80;38.50;;;;;;5077914;28;20023;-80
2022/05/05 11:49:19;;;;;;;1.00;0.88;;;31.70;34.40;;;;;;5076123;28;20024;-80
2022/05/05 11:51:45;;;;;;;0.93;0.93;;;31.30;36.20;;;;;;5074542;28;20029;-80
2022/05/05 11:54:16;;;;;;;1.95;0.57;;;30.80;34.90;;;;;;5075569;28;20671;-80
2022/05/05 11:56:47;;;;;;;1.88;0.85;;;31.60;38.80;;;;;;5075993;28;20015;-80
2022/05/05 12:02:10;;;;;;;1.85;1.00;;;31.70;34.80;;;;;;5077836;28;20027;-81
2022/05/05 12:04:47;;;;;;;1.40;0.90;;;33.20;36.20;;;;;;5078343;28;20392;-80
2022/05/05 12:07:23;;;;;;;1.63;1.10;;;32.50;34.30;;;;;;5078194;28;20016;-80
2022/05/05 12:09:59;;;;;;;1.10;0.85;;;31.00;33.80;;;;;;5078183;28;20462;-80
2022/05/05 12:12:27;;;;;;;0.88;0.85;;;30.10;38.30;;;;;;5077977;28;20027;-80
2022/05/05 12:15:05;;;;;;;1.45;1.15;;;30.40;36.30;;;;;;5078137;28;20166;-79
2022/05/05 12:17:45;;;;;;;1.30;1.02;;;30.10;37.00;;;;;;5077657;28;20086;-80
2022/05/05 12:20:12;;;;;;;1.98;1.00;;;28.30;36.50;;;;;;5078209;28;20115;-79
2022/05/05 12:22:40;;;;;;;1.30;1.20;;;29.70;38.20;;;;;;5077903;28;20466;-80
2022/05/05 12:25:16;;;;;;;1.58;0.90;;;30.20;36.40;;;;;;5078400;28;20025;-80
2022/05/05 12:27:57;;;;;;;3.10;1.27;;;30.60;35.30;;;;;;5077357;28;20105;-80
2022/05/05 12:30:33;;;;;;;;;;;31.30;36.80;;;;;;5076522;28;20358;-80
2022/05/05 12:32:59;;;;;;;1.10;0.60;;;32.70;34.00;;;;;;5078442;28;19911;-79
2022/05/05 12:35:33;;;;;;;1.77;0.80;;;34.50;34.30;;;;;;5077613;28;20460;-80
2022/05/05 12:38:00;;;;;;;3.15;0.90;;;36.10;31.60;;;;;;5078020;28;20489;-80
2022/05/05 12:40:27;;;;;;;1.45;0.85;;;36.40;29.80;;;;;;5070193;28;20020;-79
2022/05/05 12:43:01;;;;;;;1.85;1.10;;;36.60;30.00;;;;;;5078712;28;20028;-80
2022/05/05 12:45:30;;;;;;;0.90;0.80;;;35.80;29.30;;;;;;5077088;28;20023;-79
2022/05/05 12:47:59;;;;;;;0.70;0.70;;;35.20;32.40;;;;;;5078101;28;20036;-80
2022/05/05 12:50:33;;;;;;;1.00;0.95;;;35.80;30.00;;;;;;5077520;28;20126;-80
2022/05/05 13:01:41;;;;;;;1.73;1.10;;;30.90;34.40;;;;;;5082055;28;20039;-82
2022/05/05 13:04:10;;;;;;;2.88;1.23;;;30.60;34.30;;;;;;5086890;28;20036;-82
2022/05/05 13:06:37;;;;;;;1.10;1.00;;;29.40;36.80;;;;;;5089864;28;20020;-82
2022/05/05 13:09:05;;;;;;;2.83;1.45;;;28.30;38.50;;;;;;5079859;28;20028;-82
2022/05/05 13:11:32;;;;;;;1.73;1.10;;;28.40;39.20;;;;;;5080798;28;20020;-83
2022/05/05 13:13:58;;;;;;;2.15;1.27;;;28.80;38.00;;;;;;5081671;28;20424;-82
2022/05/05 13:16:27;;;;;;;1.95;1.52;;;29.20;38.00;;;;;;5082969;28;20377;-82
2022/05/05 13:18:53;;;;;;;3.58;1.25;;;30.70;36.80;;;;;;5084295;28;20055;-81
2022/05/05 13:21:18;;;;;;;2.55;1.40;;;30.40;35.90;;;;;;5080829;28;20385;-82
2022/05/05 13:23:44;;;;;;;1.70;1.38;;;29.10;36.30;;;;;;5085090;28;20483;-82
2022/05/05 13:26:11;;;;;;;2.00;1.38;;;28.10;38.80;;;;;;5083636;28;20028;-82
2022/05/05 13:28:37;;;;;;;2.30;1.10;;;27.10;39.50;;;;;;5081826;28;20017;-81
2022/05/05 13:31:03;;;;;;;1.77;1.40;;;27.50;44.40;;;;;;5086167;28;20020;-82
2022/05/05 13:33:29;;;;;;;2.45;1.40;;;29.10;38.90;;;;;;5083386;28;20396;-82
2022/05/05 13:35:55;;;;;;;1.35;1.25;;;30.70;37.30;;;;;;5082722;28;20016;-82
2022/05/05 13:38:23;;;;;;;1.85;1.10;;;30.30;35.70;;;;;;5080635;28;20024;-82
2022/05/05 13:40:49;;;;;;;1.42;1.25;;;29.40;36.40;;;;;;5083141;28;20052;-82
2022/05/05 13:43:15;;;;;;;1.42;1.17;;;28.70;37.20;;;;;;5084846;28;20032;-82
2022/05/05 13:45:41;;;;;;;1.73;1.30;;;29.30;37.60;;;;;;5079769;28;20024;-81
2022/05/05 13:48:07;;;;;;;2.17;1.30;;;29.70;37.20;;;;;;5082357;28;20032;-82